Cuervo, New Mexico
Current Conditions -  °F | °C
As of 12:53 AM on Thursday 18 Dec 2014 (Local Time) from KTCC Reporting Station
Clear Clear  
Wind Chill: 32°   Ceiling: Unl
Heat Index: 32°   Visibility: 10mi
Dew Point: 28°   Wind: 3mph
Humidity: 85%   Direction: 50°NE
Pressure: 29.98"   Gusts: NA
Location:  35.03°N, 104.41°W
Report Text: KTCC 180753Z AUTO 05003KT 10SM CLR 00/M02 A2998 RMK AO2 SLP143 T00001022
Loading
Personal Weather Stations






























Interactive Weather Map New forecast layout! Learn more

10-Day Weather Forecast

Advertisements
Track Severe Weather on mobile